sensor_id;sensor_type;location;lat;lon;timestamp;pressure;altitude;pressure_sealevel;temperature;humidity
33496;BME280;19836;55.812;37.560;2024-02-15T03:03:26;100985.53;;;-7.98;64.25
33496;BME280;19836;55.812;37.560;2024-02-15T03:06:18;100979.78;;;-7.92;64.57
33496;BME280;19836;55.812;37.560;2024-02-15T03:08:46;100988.31;;;-7.95;63.80
33496;BME280;19836;55.812;37.560;2024-02-15T03:16:17;100994.91;;;-8.00;63.73
33496;BME280;19836;55.812;37.560;2024-02-15T03:18:43;101004.94;;;-8.06;64.00
33496;BME280;19836;55.812;37.560;2024-02-15T03:21:09;100992.03;;;-8.04;64.23
33496;BME280;19836;55.812;37.560;2024-02-15T03:23:38;100999.75;;;-8.06;64.00
33496;BME280;19836;55.812;37.560;2024-02-15T03:26:07;101003.25;;;-8.05;63.67
33496;BME280;19836;55.812;37.560;2024-02-15T03:28:34;100995.84;;;-7.99;64.60
33496;BME280;19836;55.812;37.560;2024-02-15T03:31:02;101007.81;;;-8.01;64.63
33496;BME280;19836;55.812;37.560;2024-02-15T03:33:28;101005.66;;;-8.08;64.46
33496;BME280;19836;55.812;37.560;2024-02-15T03:35:59;101007.25;;;-8.10;64.05
33496;BME280;19836;55.812;37.560;2024-02-15T03:38:28;100996.75;;;-8.12;65.09
33496;BME280;19836;55.812;37.560;2024-02-15T03:41:00;101001.16;;;-8.11;64.78
33496;BME280;19836;55.812;37.560;2024-02-15T03:43:50;101008.34;;;-8.07;64.48
33496;BME280;19836;55.812;37.560;2024-02-15T03:50:47;100999.94;;;-8.03;64.31
33496;BME280;19836;55.812;37.560;2024-02-15T03:53:13;101008.44;;;-8.05;64.48
33496;BME280;19836;55.812;37.560;2024-02-15T03:55:41;101013.34;;;-8.10;65.01
33496;BME280;19836;55.812;37.560;2024-02-15T03:58:07;101005.75;;;-8.07;64.76
33496;BME280;19836;55.812;37.560;2024-02-15T04:00:34;101013.72;;;-8.04;64.82
33496;BME280;19836;55.812;37.560;2024-02-15T04:03:00;101005.75;;;-8.07;65.54
33496;BME280;19836;55.812;37.560;2024-02-15T04:05:26;101010.13;;;-8.06;64.66
33496;BME280;19836;55.812;37.560;2024-02-15T04:07:58;101011.75;;;-8.08;64.94
33496;BME280;19836;55.812;37.560;2024-02-15T04:10:33;101021.94;;;-8.11;64.75
33496;BME280;19836;55.812;37.560;2024-02-15T04:13:05;101019.63;;;-8.06;64.87
33496;BME280;19836;55.812;37.560;2024-02-15T04:15:35;101017.50;;;-7.99;65.27
33496;BME280;19836;55.812;37.560;2024-02-15T04:18:03;101015.91;;;-7.97;65.52
33496;BME280;19836;55.812;37.560;2024-02-15T04:20:29;101021.13;;;-7.97;64.89
33496;BME280;19836;55.812;37.560;2024-02-15T04:22:55;101013.91;;;-8.01;64.90
33496;BME280;19836;55.812;37.560;2024-02-15T04:25:23;101016.53;;;-8.01;65.07
33496;BME280;19836;55.812;37.560;2024-02-15T04:27:53;101015.91;;;-7.97;65.70
33496;BME280;19836;55.812;37.560;2024-02-15T04:30:20;101022.91;;;-7.96;65.12
33496;BME280;19836;55.812;37.560;2024-02-15T04:32:48;101014.13;;;-7.98;65.07
33496;BME280;19836;55.812;37.560;2024-02-15T04:35:14;101013.31;;;-7.97;65.15
33496;BME280;19836;55.812;37.560;2024-02-15T05:10:54;101026.91;;;-8.01;64.88
33496;BME280;19836;55.812;37.560;2024-02-15T05:13:24;101032.13;;;-8.01;65.11
33496;BME280;19836;55.812;37.560;2024-02-15T05:15:50;101039.22;;;-7.98;65.59
33496;BME280;19836;55.812;37.560;2024-02-15T05:18:16;101035.63;;;-8.00;65.22
33496;BME280;19836;55.812;37.560;2024-02-15T05:20:42;101046.22;;;-7.97;65.68
33496;BME280;19836;55.812;37.560;2024-02-15T05:23:08;101038.63;;;-7.94;65.47
33496;BME280;19836;55.812;37.560;2024-02-15T05:25:34;101043.91;;;-7.93;65.90
33496;BME280;19836;55.812;37.560;2024-02-15T05:28:01;101060.59;;;-7.89;65.90
33496;BME280;19836;55.812;37.560;2024-02-15T05:30:27;101055.66;;;-7.85;65.76
33496;BME280;19836;55.812;37.560;2024-02-15T05:32:57;101064.66;;;-7.80;65.51
33496;BME280;19836;55.812;37.560;2024-02-15T05:35:48;101068.34;;;-7.76;66.44
33496;BME280;19836;55.812;37.560;2024-02-15T05:38:16;101072.84;;;-7.74;66.17
33496;BME280;19836;55.812;37.560;2024-02-15T05:40:43;101072.84;;;-7.74;65.56
33496;BME280;19836;55.812;37.560;2024-02-15T05:43:09;101082.53;;;-7.71;65.72
33496;BME280;19836;55.812;37.560;2024-02-15T05:45:35;101092.22;;;-7.69;65.47
33496;BME280;19836;55.812;37.560;2024-02-15T05:48:04;101085.44;;;-7.67;65.76
33496;BME280;19836;55.812;37.560;2024-02-15T05:50:32;101086.31;;;-7.66;65.92
33496;BME280;19836;55.812;37.560;2024-02-15T05:52:58;101089.13;;;-7.63;66.18
33496;BME280;19836;55.812;37.560;2024-02-15T05:55:25;101095.84;;;-7.67;66.09
33496;BME280;19836;55.812;37.560;2024-02-15T05:57:52;101101.06;;;-7.67;65.94
33496;BME280;19836;55.812;37.560;2024-02-15T06:00:19;101099.44;;;-7.65;66.17
33496;BME280;19836;55.812;37.560;2024-02-15T06:02:45;101106.44;;;-7.64;65.91
33496;BME280;19836;55.812;37.560;2024-02-15T06:05:11;101098.63;;;-7.64;65.85
33496;BME280;19836;55.812;37.560;2024-02-15T06:07:37;101098.94;;;-7.59;65.92
33496;BME280;19836;55.812;37.560;2024-02-15T06:10:03;101098.28;;;-7.55;65.45
33496;BME280;19836;55.812;37.560;2024-02-15T06:12:29;101103.59;;;-7.54;66.00
33496;BME280;19836;55.812;37.560;2024-02-15T06:14:56;101107.81;;;-7.56;65.65
33496;BME280;19836;55.812;37.560;2024-02-15T06:17:21;101110.59;;;-7.53;66.26
33496;BME280;19836;55.812;37.560;2024-02-15T06:19:47;101098.41;;;-7.54;66.20
33496;BME280;19836;55.812;37.560;2024-02-15T06:22:14;101107.63;;;-7.59;65.55
33496;BME280;19836;55.812;37.560;2024-02-15T06:25:15;101111.47;;;-7.67;65.33
33496;BME280;19836;55.812;37.560;2024-02-15T06:28:35;101119.53;;;-7.62;65.61
33496;BME280;19836;55.812;37.560;2024-02-15T06:31:50;101113.84;;;-7.57;66.21
33496;BME280;19836;55.812;37.560;2024-02-15T06:34:42;101111.03;;;-7.60;66.02
33496;BME280;19836;55.812;37.560;2024-02-15T06:38:08;101117.84;;;-7.62;65.24
33496;BME280;19836;55.812;37.560;2024-02-15T06:40:58;101111.84;;;-7.61;65.65
33496;BME280;19836;55.812;37.560;2024-02-15T06:43:24;101113.41;;;-7.63;65.27
33496;BME280;19836;55.812;37.560;2024-02-15T06:45:49;101106.06;;;-7.70;65.35
33496;BME280;19836;55.812;37.560;2024-02-15T06:48:17;101113.03;;;-7.69;65.52
33496;BME280;19836;55.812;37.560;2024-02-15T06:50:43;101116.66;;;-7.67;65.30
33496;BME280;19836;55.812;37.560;2024-02-15T06:53:10;101110.91;;;-7.61;65.28
33496;BME280;19836;55.812;37.560;2024-02-15T06:55:37;101118.03;;;-7.59;66.19
33496;BME280;19836;55.812;37.560;2024-02-15T06:58:04;101117.63;;;-7.52;65.52
33496;BME280;19836;55.812;37.560;2024-02-15T07:00:31;101116.72;;;-7.52;65.82
33496;BME280;19836;55.812;37.560;2024-02-15T07:02:57;101124.78;;;-7.48;65.21
33496;BME280;19836;55.812;37.560;2024-02-15T07:05:23;101119.78;;;-7.45;65.36
33496;BME280;19836;55.812;37.560;2024-02-15T07:07:49;101125.19;;;-7.42;65.61
33496;BME280;19836;55.812;37.560;2024-02-15T07:10:15;101120.00;;;-7.42;65.66
33496;BME280;19836;55.812;37.560;2024-02-15T07:12:44;101118.16;;;-7.43;65.35
33496;BME280;19836;55.812;37.560;2024-02-15T07:15:10;101121.78;;;-7.41;65.43
33496;BME280;19836;55.812;37.560;2024-02-15T07:17:37;101108.44;;;-7.32;65.53
33496;BME280;19836;55.812;37.560;2024-02-15T07:20:04;101118.94;;;-7.31;65.80
33496;BME280;19836;55.812;37.560;2024-02-15T07:22:31;101121.53;;;-7.31;64.93
33496;BME280;19836;55.812;37.560;2024-02-15T07:25:01;101125.94;;;-7.30;65.39
33496;BME280;19836;55.812;37.560;2024-02-15T07:27:28;101129.94;;;-7.22;65.03
33496;BME280;19836;55.812;37.560;2024-02-15T07:29:54;101134.25;;;-7.08;65.33
33496;BME280;19836;55.812;37.560;2024-02-15T07:32:21;101125.78;;;-6.91;65.11
33496;BME280;19836;55.812;37.560;2024-02-15T07:34:47;101129.56;;;-6.86;64.70
33496;BME280;19836;55.812;37.560;2024-02-15T07:37:13;101124.69;;;-6.80;64.72
33496;BME280;19836;55.812;37.560;2024-02-15T07:39:41;101124.34;;;-6.71;64.49
33496;BME280;19836;55.812;37.560;2024-02-15T07:42:08;101127.16;;;-6.68;64.56
33496;BME280;19836;55.812;37.560;2024-02-15T07:44:38;101123.25;;;-6.60;64.21
33496;BME280;19836;55.812;37.560;2024-02-15T07:47:04;101132.19;;;-6.57;64.58
33496;BME280;19836;55.812;37.560;2024-02-15T07:49:30;101130.81;;;-6.65;64.12
33496;BME280;19836;55.812;37.560;2024-02-15T07:51:57;101130.56;;;-6.69;63.67
33496;BME280;19836;55.812;37.560;2024-02-15T07:54:24;101135.31;;;-6.62;63.73
33496;BME280;19836;55.812;37.560;2024-02-15T07:56:50;101135.97;;;-6.52;63.74
33496;BME280;19836;55.812;37.560;2024-02-15T07:59:16;101140.09;;;-6.41;63.77
33496;BME280;19836;55.812;37.560;2024-02-15T08:01:45;101136.31;;;-6.31;63.40
33496;BME280;19836;55.812;37.560;2024-02-15T08:04:13;101138.63;;;-6.21;63.89
33496;BME280;19836;55.812;37.560;2024-02-15T08:06:38;101152.13;;;-6.14;63.57
33496;BME280;19836;55.812;37.560;2024-02-15T08:09:05;101134.91;;;-6.10;63.31
33496;BME280;19836;55.812;37.560;2024-02-15T08:11:31;101150.84;;;-6.06;63.23
33496;BME280;19836;55.812;37.560;2024-02-15T08:13:57;101150.84;;;-6.06;63.05
33496;BME280;19836;55.812;37.560;2024-02-15T08:16:25;101146.25;;;-6.10;63.16
33496;BME280;19836;55.812;37.560;2024-02-15T08:18:54;101148.69;;;-6.13;63.05
33496;BME280;19836;55.812;37.560;2024-02-15T08:21:27;101149.84;;;-6.08;62.66
33496;BME280;19836;55.812;37.560;2024-02-15T08:23:59;101150.84;;;-6.06;63.00
33496;BME280;19836;55.812;37.560;2024-02-15T08:26:26;101138.78;;;-6.04;62.75
33496;BME280;19836;55.812;37.560;2024-02-15T08:28:52;101148.84;;;-5.95;62.84
33496;BME280;19836;55.812;37.560;2024-02-15T08:31:20;101139.56;;;-5.90;62.36
33496;BME280;19836;55.812;37.560;2024-02-15T08:33:46;101145.78;;;-5.88;62.25
33496;BME280;19836;55.812;37.560;2024-02-15T08:36:13;101151.00;;;-5.88;62.63
33496;BME280;19836;55.812;37.560;2024-02-15T08:38:39;101153.63;;;-5.88;62.04
33496;BME280;19836;55.812;37.560;2024-02-15T08:41:06;101144.44;;;-5.82;62.07
33496;BME280;19836;55.812;37.560;2024-02-15T08:43:34;101151.84;;;-5.73;62.45
33496;BME280;19836;55.812;37.560;2024-02-15T08:46:00;101150.91;;;-5.74;62.06
33496;BME280;19836;55.812;37.560;2024-02-15T08:48:31;101151.09;;;-5.71;61.76
33496;BME280;19836;55.812;37.560;2024-02-15T08:50:58;101156.47;;;-5.68;61.78
33496;BME280;19836;55.812;37.560;2024-02-15T08:53:24;101157.72;;;-5.62;61.76
33496;BME280;19836;55.812;37.560;2024-02-15T08:55:50;101143.84;;;-5.61;61.94
33496;BME280;19836;55.812;37.560;2024-02-15T08:58:19;101151.25;;;-5.68;60.97
33496;BME280;19836;55.812;37.560;2024-02-15T09:00:47;101152.00;;;-5.71;61.31
33496;BME280;19836;55.812;37.560;2024-02-15T09:03:13;101159.81;;;-5.71;61.53
33496;BME280;19836;55.812;37.560;2024-02-15T09:05:40;101162.81;;;-5.79;60.83
33496;BME280;19836;55.812;37.560;2024-02-15T09:08:06;101152.88;;;-5.86;61.34
33496;BME280;19836;55.812;37.560;2024-02-15T09:10:32;101139.56;;;-5.90;61.02
33496;BME280;19836;55.812;37.560;2024-02-15T09:12:58;101151.88;;;-5.88;61.36
33496;BME280;19836;55.812;37.560;2024-02-15T09:15:24;101148.41;;;-5.88;60.99
33496;BME280;19836;55.812;37.560;2024-02-15T09:17:51;101150.56;;;-5.96;61.15
33496;BME280;19836;55.812;37.560;2024-02-15T09:20:17;101154.44;;;-6.04;60.99
33496;BME280;19836;55.812;37.560;2024-02-15T09:22:54;101153.28;;;-6.09;60.72
33496;BME280;19836;55.812;37.560;2024-02-15T09:25:21;101157.53;;;-6.11;60.66
33496;BME280;19836;55.812;37.560;2024-02-15T09:27:51;101151.28;;;-6.13;60.70
33496;BME280;19836;55.812;37.560;2024-02-15T09:30:17;101160.38;;;-6.06;60.56
33496;BME280;19836;55.812;37.560;2024-02-15T09:32:44;101160.00;;;-5.98;60.74
33496;BME280;19836;55.812;37.560;2024-02-15T09:35:11;101158.31;;;-5.97;61.03
33496;BME280;19836;55.812;37.560;2024-02-15T09:37:43;101161.81;;;-5.97;60.91
33496;BME280;19836;55.812;37.560;2024-02-15T09:40:15;101156.41;;;-6.00;60.56
33496;BME280;19836;55.812;37.560;2024-02-15T09:42:43;101149.84;;;-6.08;60.56
33496;BME280;19836;55.812;37.560;2024-02-15T09:45:13;101161.47;;;-6.17;60.25
33496;BME280;19836;55.812;37.560;2024-02-15T09:47:44;101171.81;;;-6.19;60.47
33496;BME280;19836;55.812;37.560;2024-02-15T09:50:15;101162.38;;;-6.17;60.81
33496;BME280;19836;55.812;37.560;2024-02-15T09:52:52;101159.31;;;-6.10;60.76
33496;BME280;19836;55.812;37.560;2024-02-15T09:55:18;101160.28;;;-6.08;60.76
33496;BME280;19836;55.812;37.560;2024-02-15T09:57:46;101164.72;;;-6.07;60.64
33496;BME280;19836;55.812;37.560;2024-02-15T10:00:13;101161.28;;;-6.06;60.23
33496;BME280;19836;55.812;37.560;2024-02-15T10:02:44;101169.84;;;-6.08;60.40
33496;BME280;19836;55.812;37.560;2024-02-15T10:05:11;101158.41;;;-6.10;60.38
33496;BME280;19836;55.812;37.560;2024-02-15T10:07:40;101164.91;;;-6.18;60.14
33496;BME280;19836;55.812;37.560;2024-02-15T10:10:27;101162.53;;;-6.14;60.48
33496;BME280;19836;55.812;37.560;2024-02-15T10:12:54;101170.47;;;-6.27;59.88
33496;BME280;19836;55.812;37.560;2024-02-15T10:15:39;101169.94;;;-6.36;60.12
33496;BME280;19836;55.812;37.560;2024-02-15T10:18:09;101174.25;;;-6.36;59.69
33496;BME280;19836;55.812;37.560;2024-02-15T10:20:37;101176.75;;;-6.38;59.86
33496;BME280;19836;55.812;37.560;2024-02-15T10:25:35;101160.41;;;-6.21;59.89
33496;BME280;19836;55.812;37.560;2024-02-15T10:28:11;101166.94;;;-6.13;59.86
33496;BME280;19836;55.812;37.560;2024-02-15T10:30:43;101168.91;;;-6.09;59.81
33496;BME280;19836;55.812;37.560;2024-02-15T10:33:09;101172.34;;;-6.10;60.01
33496;BME280;19836;55.812;37.560;2024-02-15T10:35:36;101176.94;;;-6.06;59.49
33496;BME280;19836;55.812;37.560;2024-02-15T10:38:08;101175.66;;;-5.98;59.71
33496;BME280;19836;55.812;37.560;2024-02-15T10:40:34;101175.31;;;-5.89;59.75
33496;BME280;19836;55.812;37.560;2024-02-15T10:43:03;101177.25;;;-5.85;60.24
33496;BME280;19836;55.812;37.560;2024-02-15T10:45:30;101178.25;;;-5.83;59.83
33496;BME280;19836;55.812;37.560;2024-02-15T10:47:57;101172.03;;;-5.85;59.57
33496;BME280;19836;55.812;37.560;2024-02-15T10:50:24;101173.03;;;-5.83;59.69
33496;BME280;19836;55.812;37.560;2024-02-15T10:52:57;101180.19;;;-5.79;60.04
33496;BME280;19836;55.812;37.560;2024-02-15T10:58:00;101174.75;;;-5.84;59.81
33496;BME280;19836;55.812;37.560;2024-02-15T11:00:30;101172.22;;;-5.82;59.40
33496;BME280;19836;55.812;37.560;2024-02-15T11:03:02;101165.75;;;-5.89;59.59
33496;BME280;19836;55.812;37.560;2024-02-15T11:05:40;101163.56;;;-5.81;59.44
33496;BME280;19836;55.812;37.560;2024-02-15T11:08:10;101161.56;;;-5.71;59.44
33496;BME280;19836;55.812;37.560;2024-02-15T11:10:38;101170.09;;;-5.73;59.57
33496;BME280;19836;55.812;37.560;2024-02-15T11:13:08;101169.72;;;-5.81;59.58
33496;BME280;19836;55.812;37.560;2024-02-15T11:15:44;101171.25;;;-5.84;59.31
33496;BME280;19836;55.812;37.560;2024-02-15T11:18:42;101170.63;;;-5.79;59.43
33496;BME280;19836;55.812;37.560;2024-02-15T11:21:10;101176.19;;;-5.73;59.15
33496;BME280;19836;55.812;37.560;2024-02-15T11:23:36;101169.47;;;-5.69;59.03
33496;BME280;19836;55.812;37.560;2024-02-15T11:26:02;101167.91;;;-5.66;59.42
33496;BME280;19836;55.812;37.560;2024-02-15T11:30:55;101180.78;;;-5.69;59.36
33496;BME280;19836;55.812;37.560;2024-02-15T11:33:35;101186.38;;;-5.78;59.09
33496;BME280;19836;55.812;37.560;2024-02-15T11:36:11;101170.81;;;-5.76;59.41
33496;BME280;19836;55.812;37.560;2024-02-15T11:38:39;101192.69;;;-5.74;59.46
33496;BME280;19836;55.812;37.560;2024-02-15T11:41:11;101184.44;;;-5.81;59.18
33496;BME280;19836;55.812;37.560;2024-02-15T11:46:13;101190.28;;;-5.85;59.36
33496;BME280;19836;55.812;37.560;2024-02-15T11:48:48;101189.84;;;-5.93;59.19
33496;BME280;19836;55.812;37.560;2024-02-15T11:51:34;101187.91;;;-5.97;59.56
33496;BME280;19836;55.812;37.560;2024-02-15T11:54:09;101192.69;;;-6.04;59.33
33496;BME280;19836;55.812;37.560;2024-02-15T11:59:13;101195.63;;;-5.98;59.66
33496;BME280;19836;55.812;37.560;2024-02-15T12:01:56;101195.53;;;-6.00;59.44
33496;BME280;19836;55.812;37.560;2024-02-15T12:04:41;101196.34;;;-6.01;59.33
33496;BME280;19836;55.812;37.560;2024-02-15T12:07:26;101191.78;;;-6.05;59.50
33496;BME280;19836;55.812;37.560;2024-02-15T12:10:17;101197.25;;;-6.15;59.69
33496;BME280;19836;55.812;37.560;2024-02-15T12:13:01;101201.13;;;-6.23;59.45
33496;BME280;19836;55.812;37.560;2024-02-15T12:15:59;101198.34;;;-6.26;59.63
33496;BME280;19836;55.812;37.560;2024-02-15T12:18:45;101200.13;;;-6.25;59.71
33496;BME280;19836;55.812;37.560;2024-02-15T12:21:18;101204.38;;;-6.27;59.64
33496;BME280;19836;55.812;37.560;2024-02-15T12:23:46;101204.38;;;-6.27;59.68
33496;BME280;19836;55.812;37.560;2024-02-15T12:26:13;101210.13;;;-6.32;59.93
33496;BME280;19836;55.812;37.560;2024-02-15T12:28:41;101208.41;;;-6.32;59.89
33496;BME280;19836;55.812;37.560;2024-02-15T12:31:08;101204.28;;;-6.28;59.81
33496;BME280;19836;55.812;37.560;2024-02-15T12:33:35;101213.06;;;-6.26;60.35
33496;BME280;19836;55.812;37.560;2024-02-15T12:36:06;101209.84;;;-6.37;60.12
33496;BME280;19836;55.812;37.560;2024-02-15T12:38:34;101207.31;;;-6.35;60.16
33496;BME280;19836;55.812;37.560;2024-02-15T12:41:04;101211.09;;;-6.30;60.52
33496;BME280;19836;55.812;37.560;2024-02-15T12:43:42;101214.16;;;-6.23;60.38
33496;BME280;19836;55.812;37.560;2024-02-15T12:46:08;101218.03;;;-6.16;60.31
33496;BME280;19836;55.812;37.560;2024-02-15T12:48:35;101210.91;;;-6.19;60.04
33496;BME280;19836;55.812;37.560;2024-02-15T12:51:15;101209.31;;;-6.17;60.58
33496;BME280;19836;55.812;37.560;2024-02-15T12:53:41;101213.25;;;-6.09;60.61
33496;BME280;19836;55.812;37.560;2024-02-15T12:56:07;101209.47;;;-6.14;60.47
33496;BME280;19836;55.812;37.560;2024-02-15T12:58:35;101212.72;;;-6.18;60.25
33496;BME280;19836;55.812;37.560;2024-02-15T13:01:01;101215.06;;;-6.22;60.05
33496;BME280;19836;55.812;37.560;2024-02-15T13:03:27;101219.56;;;-6.20;60.40
33496;BME280;19836;55.812;37.560;2024-02-15T13:05:57;101227.13;;;-6.24;60.44
33496;BME280;19836;55.812;37.560;2024-02-15T13:08:23;101217.06;;;-6.18;60.39
33496;BME280;19836;55.812;37.560;2024-02-15T13:10:50;101220.47;;;-6.19;60.18
33496;BME280;19836;55.812;37.560;2024-02-15T13:13:17;101221.81;;;-6.26;60.74
33496;BME280;19836;55.812;37.560;2024-02-15T13:15:43;101228.00;;;-6.24;60.97
33496;BME280;19836;55.812;37.560;2024-02-15T13:18:09;101221.63;;;-6.29;60.50
33496;BME280;19836;55.812;37.560;2024-02-15T13:20:37;101225.84;;;-6.31;60.59
33496;BME280;19836;55.812;37.560;2024-02-15T13:23:08;101224.06;;;-6.32;60.43
33496;BME280;19836;55.812;37.560;2024-02-15T13:25:35;101227.84;;;-6.27;61.08
33496;BME280;19836;55.812;37.560;2024-02-15T13:28:05;101227.28;;;-6.21;60.91
33496;BME280;19836;55.812;37.560;2024-02-15T13:30:32;101223.69;;;-6.23;60.77
33496;BME280;19836;55.812;37.560;2024-02-15T13:33:00;101226.22;;;-6.25;61.06
33496;BME280;19836;55.812;37.560;2024-02-15T13:35:27;101227.66;;;-6.30;60.85
33496;BME280;19836;55.812;37.560;2024-02-15T13:37:54;101232.66;;;-6.33;60.99
33496;BME280;19836;55.812;37.560;2024-02-15T13:40:21;101232.66;;;-6.33;61.07
33496;BME280;19836;55.812;37.560;2024-02-15T13:42:51;101235.47;;;-6.30;60.86
33496;BME280;19836;55.812;37.560;2024-02-15T13:45:23;101227.75;;;-6.28;60.96
33496;BME280;19836;55.812;37.560;2024-02-15T13:47:52;101230.25;;;-6.30;60.77
33496;BME280;19836;55.812;37.560;2024-02-15T13:50:22;101236.44;;;-6.28;60.72
33496;BME280;19836;55.812;37.560;2024-02-15T13:52:50;101230.44;;;-6.27;60.65
33496;BME280;19836;55.812;37.560;2024-02-15T13:55:17;101233.84;;;-6.28;61.12
33496;BME280;19836;55.812;37.560;2024-02-15T13:57:45;101235.28;;;-6.33;61.02
33496;BME280;19836;55.812;37.560;2024-02-15T14:00:15;101236.09;;;-6.34;61.11
33496;BME280;19836;55.812;37.560;2024-02-15T14:02:55;101231.78;;;-6.33;61.01
33496;BME280;19836;55.812;37.560;2024-02-15T14:05:24;101230.16;;;-6.31;61.24
33496;BME280;19836;55.812;37.560;2024-02-15T14:07:54;101233.22;;;-6.38;61.33
33496;BME280;19836;55.812;37.560;2024-02-15T14:10:22;101218.72;;;-6.48;61.19
33496;BME280;19836;55.812;37.560;2024-02-15T14:12:48;101223.66;;;-6.52;61.06
33496;BME280;19836;55.812;37.560;2024-02-15T14:15:15;101231.59;;;-6.51;61.17
33496;BME280;19836;55.812;37.560;2024-02-15T14:17:43;101230.97;;;-6.47;61.27
33496;BME280;19836;55.812;37.560;2024-02-15T14:20:10;101234.28;;;-6.49;61.29
33496;BME280;19836;55.812;37.560;2024-02-15T14:22:45;101240.81;;;-6.56;60.95
33496;BME280;19836;55.812;37.560;2024-02-15T14:25:11;101240.72;;;-6.57;61.07
33496;BME280;19836;55.812;37.560;2024-02-15T14:27:41;101239.66;;;-6.61;61.30
33496;BME280;19836;55.812;37.560;2024-02-15T14:30:11;101238.94;;;-6.58;61.54
33496;BME280;19836;55.812;37.560;2024-02-15T14:32:56;101236.44;;;-6.57;61.26
33496;BME280;19836;55.812;37.560;2024-02-15T14:35:36;101243.44;;;-6.56;61.32
33496;BME280;19836;55.812;37.560;2024-02-15T14:38:08;101248.44;;;-6.59;61.38
33496;BME280;19836;55.812;37.560;2024-02-15T14:43:03;101250.25;;;-6.58;61.21
33496;BME280;19836;55.812;37.560;2024-02-15T14:45:33;101240.81;;;-6.56;61.11
33496;BME280;19836;55.812;37.560;2024-02-15T14:48:00;101240.53;;;-6.60;61.35
33496;BME280;19836;55.812;37.560;2024-02-15T14:50:26;101241.25;;;-6.63;61.19
33496;BME280;19836;55.812;37.560;2024-02-15T14:52:52;101242.88;;;-6.65;61.56
33496;BME280;19836;55.812;37.560;2024-02-15T14:55:19;101229.84;;;-6.65;61.78
33496;BME280;19836;55.812;37.560;2024-02-15T14:57:46;101242.88;;;-6.65;61.54
33496;BME280;19836;55.812;37.560;2024-02-15T15:00:13;101244.66;;;-6.64;61.66
33496;BME280;19836;55.812;37.560;2024-02-15T15:02:46;101240.88;;;-6.69;61.53
33496;BME280;19836;55.812;37.560;2024-02-15T15:05:15;101246.69;;;-6.73;61.70
33496;BME280;19836;55.812;37.560;2024-02-15T15:08:00;101252.72;;;-6.74;61.67
33496;BME280;19836;55.812;37.560;2024-02-15T15:10:46;101242.66;;;-6.68;61.34
33496;BME280;19836;55.812;37.560;2024-02-15T15:13:32;101242.88;;;-6.65;61.60
33496;BME280;19836;55.812;37.560;2024-02-15T15:15:59;101246.44;;;-6.63;61.37
33496;BME280;19836;55.812;37.560;2024-02-15T15:18:26;101238.03;;;-6.59;61.92
33496;BME280;19836;55.812;37.560;2024-02-15T15:20:52;101241.44;;;-6.60;61.39
33496;BME280;19836;55.812;37.560;2024-02-15T15:23:18;101246.84;;;-6.57;61.70
33496;BME280;19836;55.812;37.560;2024-02-15T15:25:44;101244.03;;;-6.60;61.73
33496;BME280;19836;55.812;37.560;2024-02-15T15:28:10;101251.59;;;-6.64;61.77
33496;BME280;19836;55.812;37.560;2024-02-15T15:30:36;101242.06;;;-6.64;61.79
33496;BME280;19836;55.812;37.560;2024-02-15T15:33:03;101247.25;;;-6.64;61.74
33496;BME280;19836;55.812;37.560;2024-02-15T15:35:29;101249.88;;;-6.64;61.76
33496;BME280;19836;55.812;37.560;2024-02-15T15:37:57;101256.88;;;-6.63;62.35
33496;BME280;19836;55.812;37.560;2024-02-15T15:40:23;101263.22;;;-6.59;61.81
33496;BME280;19836;55.812;37.560;2024-02-15T15:42:49;101256.38;;;-6.57;61.98
33496;BME280;19836;55.812;37.560;2024-02-15T15:45:15;101259.06;;;-6.56;62.34
33496;BME280;19836;55.812;37.560;2024-02-15T15:47:41;101251.34;;;-6.54;62.28
33496;BME280;19836;55.812;37.560;2024-02-15T15:50:10;101262.66;;;-6.54;62.29
33496;BME280;19836;55.812;37.560;2024-02-15T15:52:39;101259.06;;;-6.56;62.64
33496;BME280;19836;55.812;37.560;2024-02-15T15:55:07;101263.38;;;-6.56;62.38
33496;BME280;19836;55.812;37.560;2024-02-15T15:57:39;101270.06;;;-6.47;62.18
33496;BME280;19836;55.812;37.560;2024-02-15T16:00:07;101271.75;;;-6.47;62.05
33496;BME280;19836;55.812;37.560;2024-02-15T16:02:44;101274.47;;;-6.46;62.49
33496;BME280;19836;55.812;37.560;2024-02-15T16:05:14;101270.84;;;-6.48;62.31
33496;BME280;19836;55.812;37.560;2024-02-15T16:07:47;101277.69;;;-6.50;62.28
33496;BME280;19836;55.812;37.560;2024-02-15T16:10:15;101266.28;;;-6.52;62.68
33496;BME280;19836;55.812;37.560;2024-02-15T16:12:43;101273.28;;;-6.51;62.51
33496;BME280;19836;55.812;37.560;2024-02-15T16:15:10;101275.28;;;-6.47;62.68
33496;BME280;19836;55.812;37.560;2024-02-15T16:17:42;101275.34;;;-6.45;62.68
33496;BME280;19836;55.812;37.560;2024-02-15T16:20:09;101278.88;;;-6.45;62.56
33496;BME280;19836;55.812;37.560;2024-02-15T16:22:37;101273.66;;;-6.45;62.45
33496;BME280;19836;55.812;37.560;2024-02-15T16:25:04;101289.09;;;-6.48;62.78
33496;BME280;19836;55.812;37.560;2024-02-15T16:27:35;101284.59;;;-6.50;63.00
33496;BME280;19836;55.812;37.560;2024-02-15T16:30:07;101288.09;;;-6.50;62.80
33496;BME280;19836;55.812;37.560;2024-02-15T16:32:35;101288.22;;;-6.48;62.72
33496;BME280;19836;55.812;37.560;2024-02-15T16:35:01;101294.13;;;-6.51;63.03
33496;BME280;19836;55.812;37.560;2024-02-15T16:37:30;101293.22;;;-6.51;62.82
33496;BME280;19836;55.812;37.560;2024-02-15T16:39:58;101298.53;;;-6.50;63.04
33496;BME280;19836;55.812;37.560;2024-02-15T16:42:24;101293.13;;;-6.53;63.08
33496;BME280;19836;55.812;37.560;2024-02-15T16:44:50;101304.72;;;-6.48;62.84
33496;BME280;19836;55.812;37.560;2024-02-15T16:47:16;101290.72;;;-6.50;62.80
33496;BME280;19836;55.812;37.560;2024-02-15T16:49:44;101296.84;;;-6.49;62.65
33496;BME280;19836;55.812;37.560;2024-02-15T16:52:11;101297.63;;;-6.50;63.14
33496;BME280;19836;55.812;37.560;2024-02-15T16:54:40;101290.72;;;-6.50;62.80